Time;durP1;ratioP1;P1;durP2;ratioP2;P2;SDS_P1;SDS_P2;PMS_P1;PMS_P2;Temp;Humidity;BMP_temperature;BMP_pressure;BME280_temperature;BME280_humidity;BME280_pressure;Samples;Min_cycle;Max_cycle;Signal;HPM_P1;HPM_P2
2021/05/02 00:00:12;;;;;;;17.73;15.83;;;;;;;;;;2107058;28;20524;-57
2021/05/02 00:01:12;;;;;;;18.63;16.63;;;;;;;;;;2093941;28;20551;-55
2021/05/02 00:02:13;;;;;;;19.10;17.03;;;;;;;;;;2094873;28;20334;-57
2021/05/02 00:03:13;;;;;;;19.40;16.93;;;;;;;;;;2098852;28;20185;-53
2021/05/02 00:04:13;;;;;;;18.80;16.40;;;;;;;;;;2105892;28;20179;-54
2021/05/02 00:05:15;;;;;;;22.43;17.27;;;;;;;;;;2102099;28;20173;-55
2021/05/02 00:06:16;;;;;;;17.47;15.53;;;;;;;;;;2096286;28;20199;-56
2021/05/02 00:07:16;;;;;;;17.83;15.93;;;;;;;;;;2086933;28;20675;-55
2021/05/02 00:08:17;;;;;;;16.83;15.23;;;;;;;;;;2096349;28;20190;-57
2021/05/02 00:09:17;;;;;;;20.17;16.90;;;;;;;;;;2104559;28;20243;-55
2021/05/02 00:10:19;;;;;;;18.20;16.30;;;;;;;;;;2099556;28;20202;-56
2021/05/02 00:11:19;;;;;;;19.63;17.20;;;;;;;;;;2092050;28;20203;-56
2021/05/02 00:12:19;;;;;;;17.70;15.80;;;;;;;;;;2094756;28;20175;-56
2021/05/02 00:13:20;;;;;;;18.67;16.03;;;;;;;;;;2094906;28;20531;-56
2021/05/02 00:14:20;;;;;;;18.10;16.20;;;;;;;;;;2107172;28;20219;-52
2021/05/02 00:15:21;;;;;;;19.40;16.23;;;;;;;;;;2104465;28;20177;-53
2021/05/02 00:16:21;;;;;;;18.70;16.70;;;;;;;;;;2102866;28;20174;-54
2021/05/02 00:17:22;;;;;;;18.63;16.73;;;;;;;;;;2090960;28;20178;-59
2021/05/02 00:18:24;;;;;;;20.80;18.00;;;;;;;;;;2093942;28;20559;-56
2021/05/02 00:19:24;;;;;;;20.70;18.50;;;;;;;;;;2095902;28;20304;-56
2021/05/02 00:20:26;;;;;;;18.80;16.83;;;;;;;;;;2089870;28;20285;-57
2021/05/02 00:21:26;;;;;;;19.00;16.93;;;;;;;;;;2105157;28;20254;-54
2021/05/02 00:22:26;;;;;;;19.90;17.53;;;;;;;;;;2100189;28;20549;-53
2021/05/02 00:23:27;;;;;;;20.27;17.13;;;;;;;;;;2096261;28;20174;-55
2021/05/02 00:24:27;;;;;;;19.70;17.43;;;;;;;;;;2099110;28;20180;-54
2021/05/02 00:25:30;;;;;;;20.73;17.30;;;;;;;;;;2090488;28;20167;-54
2021/05/02 00:26:31;;;;;;;22.10;17.73;;;;;;;;;;2094912;28;20176;-55
2021/05/02 00:27:31;;;;;;;20.40;17.93;;;;;;;;;;2102704;28;20204;-53
2021/05/02 00:28:33;;;;;;;19.80;17.70;;;;;;;;;;2089434;28;20168;-53
2021/05/02 00:29:35;;;;;;;20.33;16.93;;;;;;;;;;2089702;28;20180;-55
2021/05/02 00:30:36;;;;;;;22.13;17.60;;;;;;;;;;2091093;28;20262;-53
2021/05/02 00:31:40;;;;;;;20.97;18.10;;;;;;;;;;2090271;28;20198;-55
2021/05/02 00:32:43;;;;;;;19.23;16.80;;;;;;;;;;2089453;28;20641;-56
2021/05/02 00:33:44;;;;;;;22.47;18.77;;;;;;;;;;2090191;28;20211;-55
2021/05/02 00:34:45;;;;;;;20.87;18.60;;;;;;;;;;2099290;28;20178;-53
2021/05/02 00:35:45;;;;;;;22.93;18.87;;;;;;;;;;2091040;28;20191;-57
2021/05/02 00:36:45;;;;;;;21.57;18.57;;;;;;;;;;2098843;28;20558;-55
2021/05/02 00:37:46;;;;;;;21.63;18.57;;;;;;;;;;2106881;28;20223;-56
2021/05/02 00:38:46;;;;;;;22.43;18.57;;;;;;;;;;2098660;28;20214;-56
2021/05/02 00:39:46;;;;;;;20.90;18.60;;;;;;;;;;2097214;28;20174;-53
2021/05/02 00:40:53;;;;;;;24.07;18.47;;;;;;;;;;2089976;28;20176;-56
2021/05/02 00:41:56;;;;;;;21.10;18.80;;;;;;;;;;2091643;28;20167;-53
2021/05/02 00:43:01;;;;;;;22.27;18.27;;;;;;;;;;2097132;28;20628;-55
2021/05/02 00:44:07;;;;;;;21.90;18.50;;;;;;;;;;2089670;28;20180;-55
2021/05/02 00:45:08;;;;;;;20.10;17.97;;;;;;;;;;2095845;28;20209;-53
2021/05/02 00:46:09;;;;;;;20.67;18.27;;;;;;;;;;2090473;28;20221;-55
2021/05/02 00:47:11;;;;;;;21.97;17.90;;;;;;;;;;2101883;28;20192;-54
2021/05/02 00:48:19;;;;;;;21.80;18.87;;;;;;;;;;2105043;28;20182;-52
2021/05/02 00:49:23;;;;;;;21.50;19.20;;;;;;;;;;2103342;28;20175;-54
2021/05/02 00:50:27;;;;;;;22.83;19.23;;;;;;;;;;2102754;28;20185;-54
2021/05/02 00:51:28;;;;;;;24.43;19.93;;;;;;;;;;2101542;28;20753;-56
2021/05/02 00:52:46;;;;;;;22.30;19.83;;;;;;;;;;2093075;28;20179;-54
2021/05/02 00:53:46;;;;;;;23.07;19.33;;;;;;;;;;2091827;28;20203;-55
2021/05/02 00:54:49;;;;;;;22.13;19.63;;;;;;;;;;2090245;28;20175;-52
2021/05/02 00:55:54;;;;;;;23.20;18.70;;;;;;;;;;2088843;28;20176;-53
2021/05/02 00:56:57;;;;;;;25.07;19.47;;;;;;;;;;2090043;28;20254;-54
2021/05/02 00:58:02;;;;;;;23.60;19.23;;;;;;;;;;2090856;28;20226;-55
2021/05/02 00:59:05;;;;;;;25.30;18.90;;;;;;;;;;2096003;28;20174;-54
2021/05/02 01:00:07;;;;;;;21.30;19.00;;;;;;;;;;2092220;28;20242;-54
2021/05/02 01:01:08;;;;;;;22.43;19.23;;;;;;;;;;2107378;28;20756;-52
2021/05/02 01:02:09;;;;;;;22.70;18.47;;;;;;;;;;2098812;28;20179;-54
2021/05/02 01:03:10;;;;;;;22.73;19.70;;;;;;;;;;2099868;28;20681;-53
2021/05/02 01:04:11;;;;;;;23.97;20.17;;;;;;;;;;2096866;28;20182;-56
2021/05/02 01:05:12;;;;;;;23.33;20.33;;;;;;;;;;2101970;28;20202;-55
2021/05/02 01:06:13;;;;;;;22.73;19.20;;;;;;;;;;2090662;28;21252;-51
2021/05/02 01:07:15;;;;;;;22.93;19.20;;;;;;;;;;2097638;28;20220;-55
2021/05/02 01:08:15;;;;;;;23.73;20.47;;;;;;;;;;2097660;28;20183;-53
2021/05/02 01:09:17;;;;;;;23.87;19.57;;;;;;;;;;2094712;28;20176;-57
2021/05/02 01:10:18;;;;;;;23.30;19.47;;;;;;;;;;2101147;28;20182;-58
2021/05/02 01:11:18;;;;;;;23.93;20.63;;;;;;;;;;2102418;28;20320;-55
2021/05/02 01:12:19;;;;;;;21.97;19.03;;;;;;;;;;2092144;28;20888;-54
2021/05/02 01:13:23;;;;;;;23.80;19.30;;;;;;;;;;2093426;28;20183;-52
2021/05/02 01:14:24;;;;;;;21.37;19.07;;;;;;;;;;2102756;28;20178;-58
2021/05/02 01:15:28;;;;;;;22.93;18.87;;;;;;;;;;2095960;28;20198;-52
2021/05/02 01:16:29;;;;;;;22.50;18.63;;;;;;;;;;2093336;28;20179;-53
2021/05/02 01:17:30;;;;;;;21.40;19.07;;;;;;;;;;2090564;28;20179;-54
2021/05/02 01:18:31;;;;;;;21.47;19.17;;;;;;;;;;2098343;28;20206;-53
2021/05/02 01:19:31;;;;;;;20.27;18.17;;;;;;;;;;2099492;28;20167;-55
2021/05/02 01:20:33;;;;;;;21.57;18.57;;;;;;;;;;2096305;28;20524;-55
2021/05/02 01:21:37;;;;;;;23.47;19.83;;;;;;;;;;2101511;28;20198;-57
2021/05/02 01:22:40;;;;;;;22.47;18.90;;;;;;;;;;2094431;28;20606;-57
2021/05/02 01:23:41;;;;;;;23.47;19.17;;;;;;;;;;2102179;28;20178;-52
2021/05/02 01:24:48;;;;;;;21.73;19.07;;;;;;;;;;2085479;28;20186;-54
2021/05/02 01:25:53;;;;;;;21.40;19.20;;;;;;;;;;2092003;28;20235;-51
2021/05/02 01:26:53;;;;;;;22.20;19.27;;;;;;;;;;2095747;28;20178;-54
2021/05/02 01:27:55;;;;;;;21.70;19.17;;;;;;;;;;2097669;28;20671;-53
2021/05/02 01:28:56;;;;;;;19.97;17.87;;;;;;;;;;2090058;28;20233;-55
2021/05/02 01:29:56;;;;;;;22.40;18.93;;;;;;;;;;2106188;28;20206;-52
2021/05/02 01:30:57;;;;;;;22.90;20.07;;;;;;;;;;2099279;28;20219;-54
2021/05/02 01:31:58;;;;;;;21.97;18.57;;;;;;;;;;2097332;28;20247;-53
2021/05/02 01:32:58;;;;;;;24.27;19.00;;;;;;;;;;2090649;28;20215;-52
2021/05/02 01:33:59;;;;;;;22.23;19.00;;;;;;;;;;2103385;28;20237;-54
2021/05/02 01:34:59;;;;;;;20.17;18.00;;;;;;;;;;2098205;28;20193;-53
2021/05/02 01:35:59;;;;;;;21.03;18.17;;;;;;;;;;2096665;28;20186;-52
2021/05/02 01:37:00;;;;;;;22.83;18.83;;;;;;;;;;2106323;28;20194;-57
2021/05/02 01:38:00;;;;;;;22.03;19.50;;;;;;;;;;2091547;28;20202;-53
2021/05/02 01:39:03;;;;;;;22.40;19.07;;;;;;;;;;2098016;28;20182;-53
2021/05/02 01:40:04;;;;;;;21.40;18.97;;;;;;;;;;2093918;28;20180;-52
2021/05/02 01:41:04;;;;;;;20.83;18.63;;;;;;;;;;2100678;28;20214;-55
2021/05/02 01:42:04;;;;;;;21.77;19.03;;;;;;;;;;2094246;28;20233;-55
2021/05/02 01:43:05;;;;;;;20.73;18.53;;;;;;;;;;2103929;28;20182;-56
2021/05/02 01:44:05;;;;;;;21.73;18.37;;;;;;;;;;2099860;28;20210;-56
2021/05/02 01:45:07;;;;;;;21.10;18.37;;;;;;;;;;2097840;28;20179;-55
2021/05/02 01:46:07;;;;;;;20.77;18.20;;;;;;;;;;2092065;28;20243;-53
2021/05/02 01:47:09;;;;;;;21.03;18.73;;;;;;;;;;2103674;28;20190;-54
2021/05/02 01:48:10;;;;;;;19.60;17.50;;;;;;;;;;2098327;28;20245;-56
2021/05/02 01:49:13;;;;;;;20.63;18.43;;;;;;;;;;2097773;28;20206;-52
2021/05/02 01:50:14;;;;;;;26.07;20.10;;;;;;;;;;2100864;28;20204;-54
2021/05/02 01:51:15;;;;;;;22.53;20.07;;;;;;;;;;2103166;28;20189;-53
2021/05/02 01:52:16;;;;;;;23.37;20.33;;;;;;;;;;2100389;28;20182;-55
2021/05/02 01:53:17;;;;;;;22.57;19.93;;;;;;;;;;2102650;28;20179;-52
2021/05/02 01:54:17;;;;;;;22.73;19.73;;;;;;;;;;2096786;28;20206;-57
2021/05/02 01:55:18;;;;;;;22.43;20.00;;;;;;;;;;2097238;28;20246;-55
2021/05/02 01:56:19;;;;;;;22.30;18.87;;;;;;;;;;2099441;28;20554;-53
2021/05/02 01:57:22;;;;;;;23.10;19.37;;;;;;;;;;2093147;28;20183;-52
2021/05/02 01:58:23;;;;;;;21.90;18.97;;;;;;;;;;2081367;28;20172;-54
2021/05/02 01:59:24;;;;;;;21.03;18.73;;;;;;;;;;2094283;28;20167;-53
2021/05/02 02:00:24;;;;;;;21.50;19.20;;;;;;;;;;2100010;28;20174;-55
2021/05/02 02:01:26;;;;;;;23.50;19.37;;;;;;;;;;2101429;28;20275;-52
2021/05/02 02:02:27;;;;;;;23.97;18.83;;;;;;;;;;2100245;28;20182;-52
2021/05/02 02:03:27;;;;;;;24.43;19.43;;;;;;;;;;2106340;28;20257;-52
2021/05/02 02:04:29;;;;;;;21.07;18.40;;;;;;;;;;2105865;28;20182;-58
2021/05/02 02:05:29;;;;;;;21.50;19.20;;;;;;;;;;2109610;28;20162;-57
2021/05/02 02:06:34;;;;;;;20.07;17.77;;;;;;;;;;2103192;28;20171;-58
2021/05/02 02:07:34;;;;;;;20.97;18.77;;;;;;;;;;2101980;28;20167;-59
2021/05/02 02:08:34;;;;;;;23.70;19.03;;;;;;;;;;2099217;28;20628;-55
2021/05/02 02:09:35;;;;;;;22.20;19.20;;;;;;;;;;2089400;28;20230;-56
2021/05/02 02:10:36;;;;;;;24.47;20.33;;;;;;;;;;2089676;28;20263;-56
2021/05/02 02:11:37;;;;;;;24.03;20.10;;;;;;;;;;2098244;28;20199;-53
2021/05/02 02:12:37;;;;;;;24.13;20.17;;;;;;;;;;2098306;28;20601;-56
2021/05/02 02:13:38;;;;;;;24.83;19.67;;;;;;;;;;2097506;28;20174;-54
2021/05/02 02:14:39;;;;;;;21.10;18.53;;;;;;;;;;2098358;28;20175;-52
2021/05/02 02:15:40;;;;;;;22.53;19.63;;;;;;;;;;2099025;28;20534;-56
2021/05/02 02:16:42;;;;;;;22.30;19.90;;;;;;;;;;2098866;28;20163;-55
2021/05/02 02:17:42;;;;;;;23.97;19.93;;;;;;;;;;2099304;28;20177;-54
2021/05/02 02:18:43;;;;;;;21.63;19.30;;;;;;;;;;2082388;28;20683;-57
2021/05/02 02:19:43;;;;;;;22.07;19.37;;;;;;;;;;2082262;28;20259;-55
2021/05/02 02:20:46;;;;;;;23.20;20.27;;;;;;;;;;2090265;28;20163;-55
2021/05/02 02:21:48;;;;;;;23.90;20.17;;;;;;;;;;2081853;28;20195;-55
2021/05/02 02:22:49;;;;;;;22.60;20.23;;;;;;;;;;2090095;28;20168;-52
2021/05/02 02:24:00;;;;;;;27.00;21.07;;;;;;;;;;2089326;28;20195;-55
2021/05/02 02:25:01;;;;;;;24.77;19.83;;;;;;;;;;2084229;28;20160;-55
2021/05/02 02:26:20;;;;;;;22.63;20.00;;;;;;;;;;2083178;28;20164;-55
2021/05/02 02:27:21;;;;;;;26.53;21.37;;;;;;;;;;2091293;28;20262;-53
2021/05/02 02:28:22;;;;;;;24.97;20.63;;;;;;;;;;2082995;28;20592;-53
2021/05/02 02:29:23;;;;;;;24.70;20.33;;;;;;;;;;2090841;28;20171;-55
2021/05/02 02:30:25;;;;;;;24.80;21.67;;;;;;;;;;2083002;28;20616;-58
2021/05/02 02:31:31;;;;;;;25.03;21.40;;;;;;;;;;2082784;28;20187;-57
2021/05/02 02:32:33;;;;;;;25.77;21.23;;;;;;;;;;2079370;28;20230;-54
2021/05/02 02:33:33;;;;;;;25.10;21.47;;;;;;;;;;2082077;28;20168;-52
2021/05/02 02:34:35;;;;;;;24.13;20.97;;;;;;;;;;2082315;28;20179;-56
2021/05/02 02:35:39;;;;;;;22.13;19.73;;;;;;;;;;2073787;28;20197;-52
2021/05/02 02:36:40;;;;;;;25.07;21.43;;;;;;;;;;2081811;28;20173;-53
2021/05/02 02:37:42;;;;;;;25.30;21.13;;;;;;;;;;2081647;28;20169;-56
2021/05/02 02:38:43;;;;;;;24.07;21.43;;;;;;;;;;2090648;28;20172;-53
2021/05/02 02:40:10;;;;;;;29.37;21.77;;;;;;;;;;2090561;28;20164;-51
2021/05/02 02:41:15;;;;;;;24.93;21.77;;;;;;;;;;2086750;28;20579;-53
2021/05/02 02:42:16;;;;;;;27.50;22.77;;;;;;;;;;2092021;28;20202;-55
2021/05/02 02:43:29;;;;;;;28.87;23.63;;;;;;;;;;2081078;28;20610;-58
2021/05/02 02:44:31;;;;;;;27.30;22.63;;;;;;;;;;2082796;28;20195;-57
2021/05/02 02:45:35;;;;;;;26.73;22.07;;;;;;;;;;2089656;28;20683;-54
2021/05/02 02:46:51;;;;;;;26.83;22.40;;;;;;;;;;2096909;28;20194;-54
2021/05/02 02:47:56;;;;;;;28.17;21.60;;;;;;;;;;2089930;28;20236;-56
2021/05/02 02:48:58;;;;;;;27.03;22.40;;;;;;;;;;2093219;28;20632;-57
2021/05/02 02:49:59;;;;;;;29.80;22.87;;;;;;;;;;2095558;28;20167;-56
2021/05/02 02:51:00;;;;;;;27.73;22.77;;;;;;;;;;2075800;28;20172;-54
2021/05/02 02:52:02;;;;;;;31.13;23.77;;;;;;;;;;2098449;28;20171;-59
2021/05/02 02:53:03;;;;;;;28.27;24.03;;;;;;;;;;2092479;28;20175;-55
2021/05/02 02:54:06;;;;;;;30.27;22.67;;;;;;;;;;2097659;28;20222;-53
2021/05/02 02:55:08;;;;;;;30.73;23.27;;;;;;;;;;2105069;28;20166;-54
2021/05/02 02:56:12;;;;;;;31.33;24.73;;;;;;;;;;2089184;28;20176;-56
2021/05/02 02:57:18;;;;;;;30.47;24.07;;;;;;;;;;2089007;28;20872;-55
2021/05/02 02:58:20;;;;;;;29.23;23.53;;;;;;;;;;2099671;28;20639;-52
2021/05/02 02:59:25;;;;;;;29.70;24.90;;;;;;;;;;2101509;28;20185;-56
2021/05/02 03:00:33;;;;;;;28.80;23.23;;;;;;;;;;2103535;28;20620;-52
2021/05/02 03:01:35;;;;;;;28.83;23.50;;;;;;;;;;2100302;28;20607;-55
2021/05/02 03:02:37;;;;;;;31.07;24.27;;;;;;;;;;2091394;28;20168;-52
2021/05/02 03:03:45;;;;;;;29.17;23.87;;;;;;;;;;2093923;28;20339;-54
2021/05/02 03:04:45;;;;;;;30.90;23.57;;;;;;;;;;2104869;28;20251;-56
2021/05/02 03:05:46;;;;;;;27.33;23.23;;;;;;;;;;2088766;28;20168;-53
2021/05/02 03:06:47;;;;;;;28.63;24.20;;;;;;;;;;2083719;28;20590;-57
2021/05/02 03:07:49;;;;;;;30.43;22.40;;;;;;;;;;2099139;28;20207;-53
2021/05/02 03:08:52;;;;;;;30.63;24.27;;;;;;;;;;2089023;28;20163;-56
2021/05/02 03:09:52;;;;;;;28.60;22.70;;;;;;;;;;2097913;28;20178;-52
2021/05/02 03:10:53;;;;;;;30.83;23.37;;;;;;;;;;2096569;28;20659;-55
2021/05/02 03:11:53;;;;;;;27.57;24.17;;;;;;;;;;2089417;28;20192;-53
2021/05/02 03:12:54;;;;;;;26.03;21.20;;;;;;;;;;2100617;28;20194;-55
2021/05/02 03:13:55;;;;;;;24.10;20.17;;;;;;;;;;2105064;28;20299;-53
2021/05/02 03:14:55;;;;;;;23.77;19.50;;;;;;;;;;2094257;28;20184;-54
2021/05/02 03:15:57;;;;;;;24.13;20.70;;;;;;;;;;2097455;28;20171;-52
2021/05/02 03:16:58;;;;;;;24.23;20.37;;;;;;;;;;2092864;28;20198;-52
2021/05/02 03:18:03;;;;;;;23.63;19.50;;;;;;;;;;2091312;28;20190;-51
2021/05/02 03:19:23;;;;;;;26.00;19.70;;;;;;;;;;2095853;28;20179;-54
2021/05/02 03:20:25;;;;;;;25.87;19.27;;;;;;;;;;2096511;28;20177;-53
2021/05/02 03:21:30;;;;;;;26.37;20.17;;;;;;;;;;2097937;28;20195;-56
2021/05/02 03:22:42;;;;;;;23.30;20.07;;;;;;;;;;2094908;28;20167;-53
2021/05/02 03:23:42;;;;;;;26.63;18.93;;;;;;;;;;2098796;28;20181;-56
2021/05/02 03:24:45;;;;;;;24.67;20.27;;;;;;;;;;2092796;28;20265;-52
2021/05/02 03:25:47;;;;;;;23.20;19.83;;;;;;;;;;2098277;28;20183;-53
2021/05/02 03:26:48;;;;;;;23.70;20.43;;;;;;;;;;2098911;28;20202;-55
2021/05/02 03:28:01;;;;;;;23.93;19.50;;;;;;;;;;2096949;28;20237;-54
2021/05/02 03:29:03;;;;;;;24.33;18.50;;;;;;;;;;2086945;28;20187;-55
2021/05/02 03:30:08;;;;;;;24.33;19.80;;;;;;;;;;2101477;28;20179;-51
2021/05/02 03:31:10;;;;;;;20.77;18.57;;;;;;;;;;2094639;28;20170;-52
2021/05/02 03:32:11;;;;;;;21.07;17.47;;;;;;;;;;2088813;28;20182;-56
2021/05/02 03:33:12;;;;;;;24.40;19.17;;;;;;;;;;2089608;28;20222;-56
2021/05/02 03:34:13;;;;;;;23.07;18.33;;;;;;;;;;2089772;28;20195;-58
2021/05/02 03:35:15;;;;;;;23.43;18.23;;;;;;;;;;2098344;28;20177;-55
2021/05/02 03:36:19;;;;;;;21.50;17.93;;;;;;;;;;2107938;28;20170;-53
2021/05/02 03:37:23;;;;;;;22.53;17.13;;;;;;;;;;2103747;28;20548;-54
2021/05/02 03:38:24;;;;;;;21.03;17.10;;;;;;;;;;2099622;28;20263;-53
2021/05/02 03:39:24;;;;;;;23.83;19.03;;;;;;;;;;2098014;28;20174;-52
2021/05/02 03:40:24;;;;;;;21.47;17.50;;;;;;;;;;2094564;28;20179;-56
2021/05/02 03:41:25;;;;;;;20.73;17.37;;;;;;;;;;2097640;28;20186;-54
2021/05/02 03:42:25;;;;;;;21.07;17.70;;;;;;;;;;2093014;28;20171;-57
2021/05/02 03:43:26;;;;;;;23.17;18.53;;;;;;;;;;2092675;28;20606;-53
2021/05/02 03:44:26;;;;;;;21.90;18.33;;;;;;;;;;2092046;28;20168;-53
2021/05/02 03:45:26;;;;;;;25.17;18.63;;;;;;;;;;2103130;28;20550;-52
2021/05/02 03:46:26;;;;;;;22.27;17.57;;;;;;;;;;2097454;28;20217;-56
2021/05/02 03:47:27;;;;;;;20.93;17.80;;;;;;;;;;2092055;28;20560;-56
2021/05/02 03:48:27;;;;;;;21.33;17.13;;;;;;;;;;2097718;28;20171;-52
2021/05/02 03:49:29;;;;;;;24.90;19.10;;;;;;;;;;2096596;28;20196;-52
2021/05/02 03:50:29;;;;;;;24.00;18.33;;;;;;;;;;2103379;28;20586;-52
2021/05/02 03:51:31;;;;;;;22.43;18.07;;;;;;;;;;2100345;28;20194;-53
2021/05/02 03:52:31;;;;;;;24.50;18.77;;;;;;;;;;2103909;28;20678;-55
2021/05/02 03:53:31;;;;;;;23.57;18.87;;;;;;;;;;2095899;28;20262;-52
2021/05/02 03:54:31;;;;;;;25.03;20.53;;;;;;;;;;2091383;28;20171;-53
2021/05/02 03:55:41;;;;;;;21.10;18.40;;;;;;;;;;2094937;28;20194;-52
2021/05/02 03:56:43;;;;;;;22.67;19.23;;;;;;;;;;2098488;28;20174;-54
2021/05/02 03:57:43;;;;;;;23.63;18.60;;;;;;;;;;2105609;28;20250;-53
2021/05/02 03:58:43;;;;;;;27.77;18.87;;;;;;;;;;2096966;28;20194;-56
2021/05/02 03:59:44;;;;;;;23.20;18.20;;;;;;;;;;2084825;28;20177;-55
2021/05/02 04:00:44;;;;;;;25.37;18.97;;;;;;;;;;2088822;28;20576;-56
2021/05/02 04:01:55;;;;;;;23.90;18.70;;;;;;;;;;2105248;28;20204;-56
2021/05/02 04:02:55;;;;;;;27.13;20.37;;;;;;;;;;2090299;28;20167;-57
2021/05/02 04:03:58;;;;;;;26.13;19.00;;;;;;;;;;2096778;28;20534;-55
2021/05/02 04:04:58;;;;;;;23.03;19.37;;;;;;;;;;2098343;28;20257;-54
2021/05/02 04:05:59;;;;;;;24.13;19.17;;;;;;;;;;2098392;28;20379;-52
2021/05/02 04:07:03;;;;;;;24.57;19.20;;;;;;;;;;2105227;28;20193;-55
2021/05/02 04:08:04;;;;;;;23.93;19.70;;;;;;;;;;2100292;28;20796;-53
2021/05/02 04:09:08;;;;;;;23.53;17.97;;;;;;;;;;2094818;28;20183;-53
2021/05/02 04:10:08;;;;;;;23.87;18.47;;;;;;;;;;2094755;28;20703;-56
2021/05/02 04:11:09;;;;;;;20.00;17.67;;;;;;;;;;2094735;28;20184;-55
2021/05/02 04:12:09;;;;;;;19.70;17.60;;;;;;;;;;2087049;28;20295;-54
2021/05/02 04:13:10;;;;;;;22.83;17.43;;;;;;;;;;2105772;22;20174;-56
2021/05/02 04:14:11;;;;;;;23.13;17.97;;;;;;;;;;2109770;28;20308;-55
2021/05/02 04:15:12;;;;;;;23.63;19.07;;;;;;;;;;2109093;28;20180;-55
2021/05/02 04:16:13;;;;;;;21.17;18.30;;;;;;;;;;2109360;28;20166;-55
2021/05/02 04:17:14;;;;;;;21.53;17.33;;;;;;;;;;2113461;28;20178;-55
2021/05/02 04:18:14;;;;;;;19.83;17.73;;;;;;;;;;2111223;28;20182;-55
2021/05/02 04:19:14;;;;;;;19.00;16.67;;;;;;;;;;2111675;28;20575;-57
2021/05/02 04:20:14;;;;;;;21.60;18.57;;;;;;;;;;2113257;28;20200;-56
2021/05/02 04:21:15;;;;;;;20.07;17.30;;;;;;;;;;2112829;28;20176;-59
2021/05/02 04:22:16;;;;;;;22.80;18.23;;;;;;;;;;2113113;28;20173;-56
2021/05/02 04:23:16;;;;;;;20.83;16.87;;;;;;;;;;2111022;28;20545;-57
2021/05/02 04:24:16;;;;;;;20.33;16.60;;;;;;;;;;2114188;28;20177;-56
2021/05/02 04:25:17;;;;;;;21.17;18.07;;;;;;;;;;2112951;28;20260;-57
2021/05/02 04:26:17;;;;;;;19.13;17.00;;;;;;;;;;2113845;28;20560;-55
2021/05/02 04:27:18;;;;;;;20.03;17.13;;;;;;;;;;2111441;28;20261;-57
2021/05/02 04:28:18;;;;;;;21.50;16.83;;;;;;;;;;2116542;28;20170;-52
2021/05/02 04:29:22;;;;;;;20.53;17.13;;;;;;;;;;2113437;28;20646;-56
2021/05/02 04:30:22;;;;;;;24.17;16.67;;;;;;;;;;2113403;28;20653;-55
2021/05/02 04:31:23;;;;;;;19.87;17.17;;;;;;;;;;2106193;28;20174;-53
2021/05/02 04:32:23;;;;;;;19.07;16.43;;;;;;;;;;2106799;28;20216;-55
2021/05/02 04:33:24;;;;;;;19.03;16.77;;;;;;;;;;2114672;28;20220;-57
2021/05/02 04:34:24;;;;;;;19.20;15.97;;;;;;;;;;2115105;27;20603;-57
2021/05/02 04:35:24;;;;;;;17.83;15.93;;;;;;;;;;2106872;28;20598;-54
2021/05/02 04:36:24;;;;;;;18.50;15.63;;;;;;;;;;2106995;28;20205;-58
2021/05/02 04:37:25;;;;;;;18.07;15.00;;;;;;;;;;2116122;28;20189;-60
2021/05/02 04:38:25;;;;;;;17.47;15.57;;;;;;;;;;2114737;28;20342;-54
2021/05/02 04:39:26;;;;;;;22.67;16.03;;;;;;;;;;2114989;28;20258;-54
2021/05/02 04:40:26;;;;;;;20.63;16.00;;;;;;;;;;2114852;28;20204;-56
2021/05/02 04:41:27;;;;;;;18.63;14.50;;;;;;;;;;2115897;28;20540;-56
2021/05/02 04:42:27;;;;;;;18.10;15.33;;;;;;;;;;2115413;28;20201;-58
2021/05/02 04:43:27;;;;;;;17.60;15.37;;;;;;;;;;2110417;28;20210;-55
2021/05/02 04:44:28;;;;;;;22.57;16.70;;;;;;;;;;2112932;28;20178;-57
2021/05/02 04:45:28;;;;;;;20.87;16.20;;;;;;;;;;2115756;28;20245;-58
2021/05/02 04:46:28;;;;;;;20.73;15.53;;;;;;;;;;2115724;28;20594;-57
2021/05/02 04:47:29;;;;;;;18.43;15.20;;;;;;;;;;2115720;28;20198;-54
2021/05/02 04:48:29;;;;;;;18.97;14.83;;;;;;;;;;2106018;28;20194;-55
2021/05/02 04:49:30;;;;;;;17.33;15.50;;;;;;;;;;2106065;28;20181;-56
2021/05/02 04:50:30;;;;;;;17.63;14.73;;;;;;;;;;2107681;28;20669;-58
2021/05/02 04:51:30;;;;;;;16.80;14.87;;;;;;;;;;2112235;27;20177;-54
2021/05/02 04:52:30;;;;;;;19.53;14.73;;;;;;;;;;2106403;28;20231;-57
2021/05/02 04:53:31;;;;;;;17.00;14.27;;;;;;;;;;2105440;28;20633;-57
2021/05/02 04:54:31;;;;;;;16.73;14.90;;;;;;;;;;2115089;28;20173;-56
2021/05/02 04:55:32;;;;;;;19.30;15.30;;;;;;;;;;2106320;28;20162;-54
2021/05/02 04:56:32;;;;;;;17.57;14.77;;;;;;;;;;2106581;28;20173;-54
2021/05/02 04:57:32;;;;;;;21.23;13.70;;;;;;;;;;2114209;28;20165;-56
2021/05/02 04:58:33;;;;;;;18.87;15.50;;;;;;;;;;2099859;28;20182;-57
2021/05/02 04:59:34;;;;;;;16.80;14.13;;;;;;;;;;2104298;28;20548;-56
2021/05/02 05:00:34;;;;;;;18.60;14.33;;;;;;;;;;2104634;28;20659;-56
2021/05/02 05:01:38;;;;;;;16.50;13.93;;;;;;;;;;2105911;28;20166;-54
2021/05/02 05:02:38;;;;;;;19.40;13.93;;;;;;;;;;2114700;28;20200;-52
2021/05/02 05:03:39;;;;;;;18.77;15.07;;;;;;;;;;2114496;28;20688;-55
2021/05/02 05:04:39;;;;;;;15.87;13.93;;;;;;;;;;2115894;28;20551;-59
2021/05/02 05:05:40;;;;;;;17.83;15.77;;;;;;;;;;2115748;28;20161;-58
2021/05/02 05:06:40;;;;;;;18.57;14.87;;;;;;;;;;2106542;28;20265;-56
2021/05/02 05:07:40;;;;;;;16.80;14.40;;;;;;;;;;2106603;28;20249;-57
2021/05/02 05:08:41;;;;;;;16.50;14.53;;;;;;;;;;2105980;28;20173;-55
2021/05/02 05:09:41;;;;;;;15.87;14.23;;;;;;;;;;2105874;28;20174;-54
2021/05/02 05:10:41;;;;;;;15.80;13.37;;;;;;;;;;2115673;28;20204;-53
2021/05/02 05:11:41;;;;;;;16.37;13.70;;;;;;;;;;2115658;28;20193;-55
2021/05/02 05:12:42;;;;;;;15.10;13.50;;;;;;;;;;2106362;28;20709;-57
2021/05/02 05:13:42;;;;;;;15.07;13.50;;;;;;;;;;2105309;28;20601;-55
2021/05/02 05:14:42;;;;;;;14.90;12.80;;;;;;;;;;2115654;28;20253;-57
2021/05/02 05:15:43;;;;;;;17.77;13.57;;;;;;;;;;2115439;28;20204;-57
2021/05/02 05:16:43;;;;;;;15.43;12.57;;;;;;;;;;2106297;28;20342;-55
2021/05/02 05:17:43;;;;;;;15.83;13.20;;;;;;;;;;2105875;28;20190;-56
2021/05/02 05:18:44;;;;;;;15.90;13.80;;;;;;;;;;2113878;28;20170;-55
2021/05/02 05:19:44;;;;;;;18.37;12.87;;;;;;;;;;2115441;28;20154;-57
2021/05/02 05:20:44;;;;;;;17.80;13.97;;;;;;;;;;2115662;28;20538;-53
2021/05/02 05:21:44;;;;;;;17.57;13.30;;;;;;;;;;2114288;28;20209;-58
2021/05/02 05:22:45;;;;;;;14.50;13.07;;;;;;;;;;2114769;28;20176;-56
2021/05/02 05:23:45;;;;;;;14.60;12.90;;;;;;;;;;2114900;28;20205;-54
2021/05/02 05:24:45;;;;;;;19.70;14.60;;;;;;;;;;2106239;28;20165;-59
2021/05/02 05:25:46;;;;;;;16.03;13.63;;;;;;;;;;2106691;28;20158;-57
2021/05/02 05:26:46;;;;;;;19.30;14.93;;;;;;;;;;2115290;28;20170;-57
2021/05/02 05:27:46;;;;;;;16.83;13.47;;;;;;;;;;2113455;28;20166;-56
2021/05/02 05:28:46;;;;;;;17.20;14.20;;;;;;;;;;2111061;28;20188;-55
2021/05/02 05:29:47;;;;;;;18.30;13.47;;;;;;;;;;2115126;28;20219;-57
2021/05/02 05:30:47;;;;;;;17.73;13.27;;;;;;;;;;2114882;28;20634;-58
2021/05/02 05:31:47;;;;;;;15.37;12.83;;;;;;;;;;2115709;28;20224;-59
2021/05/02 05:32:47;;;;;;;15.50;13.57;;;;;;;;;;2112864;28;20231;-57
2021/05/02 05:33:48;;;;;;;14.70;12.00;;;;;;;;;;2114489;28;20682;-57
2021/05/02 05:34:48;;;;;;;15.93;13.60;;;;;;;;;;2115453;28;20652;-58
2021/05/02 05:35:49;;;;;;;17.10;13.30;;;;;;;;;;2115288;28;20738;-57
2021/05/02 05:36:49;;;;;;;18.67;14.37;;;;;;;;;;2106357;28;20574;-61
2021/05/02 05:37:50;;;;;;;17.80;13.90;;;;;;;;;;2106104;28;20210;-58
2021/05/02 05:38:50;;;;;;;15.63;14.03;;;;;;;;;;2105115;28;20283;-56
2021/05/02 05:39:51;;;;;;;19.73;15.07;;;;;;;;;;2106741;28;20200;-59
2021/05/02 05:40:51;;;;;;;15.93;14.23;;;;;;;;;;2121117;28;20260;-61
2021/05/02 05:41:51;;;;;;;15.60;13.90;;;;;;;;;;2108952;28;20170;-58
2021/05/02 05:42:52;;;;;;;18.83;14.13;;;;;;;;;;2106610;28;20166;-59
2021/05/02 05:43:52;;;;;;;17.40;14.53;;;;;;;;;;2115540;28;20615;-58
2021/05/02 05:44:52;;;;;;;19.40;13.57;;;;;;;;;;2117386;28;20531;-59
2021/05/02 05:45:54;;;;;;;15.37;13.77;;;;;;;;;;2107016;28;20162;-58
2021/05/02 05:46:54;;;;;;;16.33;14.40;;;;;;;;;;2105621;28;20217;-57
2021/05/02 05:47:55;;;;;;;20.57;14.07;;;;;;;;;;2105890;28;20189;-57
2021/05/02 05:48:55;;;;;;;18.90;13.73;;;;;;;;;;2097223;28;20174;-58
2021/05/02 05:49:55;;;;;;;14.77;13.23;;;;;;;;;;2098136;28;20198;-56
2021/05/02 05:50:56;;;;;;;19.57;13.93;;;;;;;;;;2106367;28;20244;-56
2021/05/02 05:51:56;;;;;;;17.37;13.33;;;;;;;;;;2115295;28;20241;-58
2021/05/02 05:52:56;;;;;;;17.23;13.73;;;;;;;;;;2110540;28;20603;-55
2021/05/02 05:53:57;;;;;;;18.87;14.07;;;;;;;;;;2115054;28;20213;-57
2021/05/02 05:54:57;;;;;;;17.23;13.43;;;;;;;;;;2115444;28;20257;-60
2021/05/02 05:55:58;;;;;;;15.50;13.90;;;;;;;;;;2115387;28;20630;-56
2021/05/02 05:56:58;;;;;;;15.73;13.53;;;;;;;;;;2115371;28;20859;-54
2021/05/02 05:57:58;;;;;;;14.57;13.17;;;;;;;;;;2114616;28;20174;-57